Nearby METAR Reports

 

KSBP - San Luis Obispo, California, USA
Distance from station: S 14mi, 22km
Updated: Sun, 14-Apr-2024 9:56am PDT
Mostly cloudy
Mostly cloudy
 Wind from ENE
Wind: ENE 3 mph , 6 km/h
Temperature: 57°F , 14°C
Dew Point: 50°F , 10°C
Humidity: 77%
Barometer: 1018.3 hPa
Clouds: Mostly cloudy
Visibility: 10 miles , 16 km
Cloud details: Few Clouds 1500 ft
Mostly cloudy 5000 ft
Mostly cloudy 6000 ft
2024/04/14 16:56 KSBP 141656Z 07003KT 10SM FEW015 BKN050 BKN060 14/10 A3007 RMK AO2 RAB05E29 SLP182 P0001 T01440100
KPRB - Paso Robles, California, USA
Distance from station: N 16mi, 26km
Updated: Sun, 14-Apr-2024 10:53am PDT
Light rain, Overcast
Light rain, Overcast
 Wind from calm
Wind: Calm
Temperature: 48°F , 9°C
Dew Point: 46°F , 8°C
Humidity: 94%
Barometer: 1018.6 hPa
Summary: Light rain
Clouds: Overcast
Visibility: 7 miles , 11 km
Cloud details: Few Clouds 2600 ft
Mostly cloudy 3400 ft
Overcast 4600 ft
2024/04/14 17:53 KPRB 141753Z AUTO 00000KT 7SM -RA FEW026 BKN034 OVC046 09/08 A3008 RMK AO2 SLP185 P0009 60044 T00940078 1
 
KSMX - Santa Maria, California, USA
Distance from station: SSE 38mi, 62km
Updated: Sun, 14-Apr-2024 10:51am PDT
Overcast
Overcast
 Wind from WSW
Wind: WSW 12 mph , 19 km/h, Gust: 18 mph , 30 km/h
Temperature: 55°F , 13°C
Dew Point: 50°F , 10°C
Humidity: 82%
Barometer: 1019 hPa
Clouds: Overcast
Visibility: 8 miles , 13 km
Cloud details: Partly cloudy 3600 ft
Mostly cloudy 5000 ft
Overcast 5500 ft
2024/04/14 17:51 KSMX 141751Z 24010G16KT 8SM SCT036 BKN050 OVC055 13/10 A3009 RMK AO2 SLP192 60052 T01330100 10144 20100 51016 $
KVBG - Vandenberg Afb, California, USA
Distance from station: S 48mi, 78km
Updated: Sun, 14-Apr-2024 9:55am PDT
Overcast
Overcast
 Wind from SW
Wind: SW 12 mph , 19 km/h
Temperature: 54°F , 12°C
Dew Point: 52°F , 11°C
Humidity: 94%
Barometer: 1019 hPa
Clouds: Overcast
Visibility: 8 miles , 13 km
Cloud details: Few Clouds 800 ft
Few Clouds 2100 ft
Partly cloudy 3000 ft
Mostly cloudy 3900 ft
Overcast 4800 ft
2024/04/14 16:55 KVBG 141655Z AUTO 22010KT 8SM FEW008 FEW021 SCT030 BKN039 OVC048 12/11 A3009 RMK AO2 SLP193 T01230110 TSNO $